• Join FlightAware (Why Join?)
  • Login
  • US Flag 
Gobble Gobble! 
01:28PM EST


 

Airport Tracker/Info


-or-


 

Live Flight TrackerFlight Track Log ✈ UPS1121 ✈ 19-Jun-2013 ✈ KBDL - KPHL

Flight Track Log - Related Links

Times and Time Zones

All times are in EDT time to prevent confusion due to time zone crossing. See the UPS1121 flight status page for this flight to view local times or setup timezone preferences in your user account.

Time Position Orientation Groundspeed Altitude Reporting Facility
EDT Latitude Longitude Course Direction KTS MPH feet Rate Location/Type
09:56PM 41.9436 -72.6997 41° Northeast 144 166 1,600  Level Boston Center
09:56PM 41.9603 -72.6803 41° Northeast 155 178 2,900 2,040 Climbing Boston Center
09:57PM 41.9458 -72.6411 116° Southeast 200 230 4,700 2,700 Climbing Boston Center
09:58PM 41.8731 -72.5933 154° Southeast 229 264 8,000 1,800 Climbing Boston Center
10:03PM 41.3940 -72.3510 154° Southeast 413 475 16,300 1,500 Climbing FlightAware
10:04PM 41.3040 -72.3430 176° South 425 489 17,300 2,400 Climbing FlightAware
10:04PM 41.2730 -72.3640 207° Southwest 425 489 18,700 3,840 Climbing FlightAware
10:05PM 41.2340 -72.3920 208° Southwest 424 488 19,500 1,140 Climbing FlightAware
10:05PM 41.1600 -72.4570 213° Southwest 425 489 20,000 360 Climbing FlightAware
10:06PM 41.1110 -72.4990 213° Southwest 425 489 20,000  Level FlightAware
10:07PM 41.0190 -72.5810 214° Southwest 426 490 20,000  Level FlightAware
10:07PM 40.9520 -72.6400 214° Southwest 425 489 20,000  Level FlightAware
10:08PM 40.8712 -72.7099 213° Southwest 425 489 20,000  Level FlightAware ADS-B
10:09PM 40.8196 -72.7551 214° Southwest 425 489 20,000  Level FlightAware ADS-B
10:09PM 40.7696 -72.7988 214° Southwest 425 489 20,000  Level FlightAware ADS-B
10:10PM 40.7195 -72.8425 213° Southwest 426 490 20,000  Level FlightAware ADS-B
10:10PM 40.6701 -72.8855 213° Southwest 426 490 20,000  Level FlightAware ADS-B
10:11PM 40.6203 -72.9286 213° Southwest 426 490 20,000  Level FlightAware ADS-B
10:11PM 40.5678 -72.9741 213° Southwest 425 489 20,000  Level FlightAware ADS-B
10:12PM 40.5148 -73.0197 213° Southwest 426 490 20,000  Level FlightAware ADS-B
10:12PM 40.4621 -73.0650 213° Southwest 427 491 20,000  Level FlightAware ADS-B
10:13PM 40.4121 -73.1081 213° Southwest 427 491 20,000  Level FlightAware ADS-B
10:14PM 40.3590 -73.1537 213° Southwest 426 490 20,000  Level FlightAware ADS-B
10:14PM 40.3008 -73.2037 213° Southwest 426 490 20,000  Level FlightAware ADS-B
10:15PM 40.2386 -73.2571 213° Southwest 426 490 20,000  Level FlightAware ADS-B
10:15PM 40.1875 -73.3009 213° Southwest 426 490 20,000  Level FlightAware ADS-B
10:16PM 40.1333 -73.3470 213° Southwest 427 491 20,000  Level FlightAware ADS-B
10:16PM 40.0798 -73.3926 213° Southwest 427 491 20,000  Level FlightAware ADS-B
10:17PM 40.0378 -73.4282 213° Southwest 427 491 20,000  Level FlightAware ADS-B
10:17PM 40.0100 -73.4544 216° Southwest 425 489 20,000  Level FlightAware ADS-B
10:17PM 39.9934 -73.4724 220° Southwest 425 489 20,000  Level FlightAware ADS-B
10:18PM 39.9704 -73.5009 224° Southwest 423 487 20,000  Level FlightAware ADS-B
10:18PM 39.9277 -73.5620 228° Southwest 421 484 20,000  Level FlightAware ADS-B
10:19PM 39.8873 -73.6203 228° Southwest 421 484 20,000  Level FlightAware ADS-B
10:19PM 39.8470 -73.6782 228° Southwest 421 484 20,000  Level FlightAware ADS-B
10:20PM 39.8079 -73.7345 228° Southwest 421 484 20,000  Level FlightAware ADS-B
10:20PM 39.7684 -73.7912 228° Southwest 421 484 20,000  Level FlightAware ADS-B
10:21PM 39.7282 -73.8491 228° Southwest 421 484 20,000 -240 Level FlightAware ADS-B
10:21PM 39.6886 -73.9058 228° Southwest 415 478 19,800 -1,200 Descending FlightAware ADS-B
10:22PM 39.6503 -73.9605 228° Southwest 403 464 18,800 -2,640 Descending FlightAware ADS-B
10:22PM 39.6111 -74.0164 228° Southwest 401 461 17,100 -3,180 Descending FlightAware ADS-B
10:23PM 39.5732 -74.0703 228° Southwest 397 457 15,600 -2,880 Descending FlightAware ADS-B
10:23PM 39.5519 -74.1010 228° Southwest 392 451 14,800 -2,760 Descending FlightAware ADS-B
10:23PM 39.5459 -74.1115 233° Southwest 390 449 14,500 -2,640 Descending FlightAware ADS-B
10:23PM 39.5367 -74.1326 241° Southwest 388 447 14,100 -1,920 Descending FlightAware ADS-B
10:23PM 39.5327 -74.1450 247° West 386 444 14,000 -900 Descending FlightAware ADS-B
10:23PM 39.5286 -74.1635 254° West 383 441 13,900 -480 Descending FlightAware ADS-B
10:24PM 39.5261 -74.2050 266° West 375 432 13,800 -900 Descending FlightAware ADS-B
10:24PM 39.5271 -74.2724 271° West 371 427 13,200 -1,200 Descending FlightAware ADS-B
10:25PM 39.5288 -74.3503 272° West 371 427 12,500 -1,200 Descending FlightAware ADS-B
10:25PM 39.5300 -74.4179 271° West 345 397 11,900 -1,200 Descending FlightAware ADS-B
10:26PM 39.5310 -74.4790 271° West 327 376 11,300 -1,080 Descending FlightAware ADS-B
10:26PM 39.5318 -74.5368 271° West 304 350 10,800 -1,020 Descending FlightAware ADS-B
10:27PM 39.5325 -74.6083 271° West 283 326 10,100 -1,020 Descending FlightAware ADS-B
10:27PM 39.5330 -74.6450 271° West 276 318 9,800 -900 Descending FlightAware ADS-B
10:28PM 39.5335 -74.6734 271° West 270 311 9,500 -900 Descending FlightAware ADS-B
10:28PM 39.5340 -74.6993 271° West 269 310 9,300 -960 Descending FlightAware ADS-B
10:28PM 39.5345 -74.7260 271° West 268 308 9,000 -960 Descending FlightAware ADS-B
10:29PM 39.5350 -74.7504 272° West 267 307 8,800 -420 Descending FlightAware ADS-B
10:29PM 39.5354 -74.7758 271° West 271 312 8,800  Level FlightAware ADS-B
10:29PM 39.5358 -74.8013 271° West 278 320 8,800  Level FlightAware ADS-B
10:29PM 39.5362 -74.8270 271° West 280 322 8,800  Level FlightAware ADS-B
10:30PM 39.5366 -74.8522 271° West 280 322 8,800  Level FlightAware ADS-B
10:30PM 39.5370 -74.8807 271° West 280 322 8,800 -420 Level FlightAware ADS-B
10:30PM 39.5375 -74.9064 271° West 278 320 8,600 -1,020 Descending FlightAware ADS-B
10:30PM 39.5379 -74.9300 271° West 276 318 8,300 -1,380 Descending FlightAware ADS-B
10:30PM 39.5382 -74.9376 273° West 276 318 8,200 -1,380 Descending FlightAware ADS-B
10:30PM 39.5391 -74.9457 278° West 275 316 8,100 -1,380 Descending FlightAware ADS-B
10:31PM 39.5403 -74.9521 284° West 274 315 8,000 -1,500 Descending FlightAware ADS-B
10:31PM 39.5443 -74.9641 293° West 272 313 7,800 -1,500 Descending FlightAware ADS-B
10:31PM 39.5468 -74.9694 301° West 271 312 7,700 -780 Descending FlightAware ADS-B
10:31PM 39.5501 -74.9747 309° West 270 311 7,700 -1,200 Level FlightAware ADS-B
10:31PM 39.5553 -74.9812 316° Northwest 269 310 7,500 -1,680 Descending FlightAware ADS-B
10:31PM 39.5604 -74.9860 324° Northwest 269 310 7,400 -1,500 Descending FlightAware ADS-B
10:31PM 39.5759 -74.9997 326° Northwest 270 311 7,000 -1,560 Descending FlightAware ADS-B
10:31PM 39.5922 -75.0135 327° Northwest 270 311 6,600 -1,380 Descending FlightAware ADS-B
10:32PM 39.6082 -75.0270 327° Northwest 271 312 6,300 -1,200 Descending FlightAware ADS-B
10:32PM 39.6247 -75.0412 326° Northwest 267 307 6,000 -1,020 Descending FlightAware ADS-B
10:32PM 39.6404 -75.0548 326° Northwest 263 303 5,800 -540 Descending FlightAware ADS-B
10:32PM 39.6483 -75.0613 328° Northwest 263 303 5,800  Level FlightAware ADS-B
10:33PM 39.6673 -75.0708 339° North 259 298 5,800  Level FlightAware ADS-B
10:33PM 39.7034 -75.0762 353° North 226 260 5,800  Level FlightAware ADS-B
10:34PM 39.7211 -75.0783 355° North 210 242 5,800  Level FlightAware ADS-B
10:34PM 39.7358 -75.0801 355° North 199 229 5,800  Level FlightAware ADS-B
10:34PM 39.7497 -75.0818 355° North 196 226 5,800 -240 Level FlightAware ADS-B
10:34PM 39.7634 -75.0834 355° North 190 219 5,700 -600 Descending FlightAware ADS-B
10:35PM 39.7771 -75.0852 354° North 192 221 5,500 -1,080 Descending FlightAware ADS-B
10:35PM 39.7847 -75.0861 355° North 192 221 5,300 -1,140 Descending FlightAware ADS-B
10:35PM 39.7875 -75.0862 358° North 193 222 5,300 -1,140 Level FlightAware ADS-B
10:35PM 39.7942 -75.0847 10° North 196 226 5,100 -1,440 Descending FlightAware ADS-B
10:35PM 39.7987 -75.0818 26° Northeast 199 229 5,000 -720 Descending FlightAware ADS-B
10:35PM 39.8015 -75.0790 38° Northeast 201 231 5,000 -900 Level FlightAware ADS-B
10:35PM 39.8034 -75.0764 46° Northeast 203 234 4,900 -900 Descending FlightAware ADS-B
10:35PM 39.8054 -75.0729 53° Northeast 204 235 4,900 -1,020 Level FlightAware ADS-B
10:35PM 39.8086 -75.0638 65° Northeast 207 238 4,700 -1,080 Descending FlightAware ADS-B
10:36PM 39.8153 -75.0322 75° East 210 242 4,300 -1,020 Descending FlightAware ADS-B
10:36PM 39.8188 -75.0137 76° East 209 241 4,000 -1,020 Descending FlightAware ADS-B
10:36PM 39.8228 -74.9941 75° East 208 239 3,800 -600 Descending FlightAware ADS-B
10:36PM 39.8242 -74.9885 72° East 208 239 3,800  Level FlightAware ADS-B
10:36PM 39.8262 -74.9833 63° Northeast 208 239 3,800  Level FlightAware ADS-B
10:36PM 39.8281 -74.9797 56° Northeast 206 237 3,800  Level FlightAware ADS-B
10:36PM 39.8305 -74.9764 47° Northeast 204 235 3,800  Level FlightAware ADS-B
10:37PM 39.8332 -74.9737 38° Northeast 202 232 3,800  Level FlightAware ADS-B
10:37PM 39.8365 -74.9714 28° Northeast 201 231 3,800  Level FlightAware ADS-B
10:37PM 39.8438 -74.9690 14° North 198 228 3,800  Level FlightAware ADS-B
10:37PM 39.8465 -74.9689 North 197 227 3,800  Level FlightAware ADS-B
10:37PM 39.8508 -74.9693 356° North 197 227 3,800  Level FlightAware ADS-B
10:37PM 39.8580 -74.9707 352° North 197 227 3,800 -540 Level FlightAware ADS-B
10:37PM 39.8719 -74.9739 350° North 196 226 3,600 -1,020 Descending FlightAware ADS-B
10:38PM 39.8861 -74.9774 349° North 197 227 3,300 -1,200 Descending FlightAware ADS-B
10:38PM 39.8999 -74.9806 350° North 197 227 3,000 -1,020 Descending FlightAware ADS-B
10:38PM 39.9136 -74.9838 350° North 198 228 2,800 -960 Descending FlightAware ADS-B
10:38PM 39.9292 -74.9874 350° North 199 229 2,500 -900 Descending FlightAware ADS-B
10:38PM 39.9329 -74.9884 348° North 200 230 2,500 -600 Level FlightAware ADS-B
10:38PM 39.9378 -74.9905 342° North 199 229 2,400 -1,380 Descending FlightAware ADS-B
10:39PM 39.9408 -74.9925 333° Northwest 198 228 2,300 -1,380 Descending FlightAware ADS-B
10:39PM 39.9449 -74.9969 321° Northwest 196 226 2,200 -600 Descending FlightAware ADS-B
10:39PM 39.9473 -75.0008 309° West 195 224 2,200 -720 Level FlightAware ADS-B
10:39PM 39.9492 -75.0056 297° West 193 222 2,100 -1,380 Descending FlightAware ADS-B
10:39PM 39.9503 -75.0108 285° West 192 221 2,000 -780 Descending FlightAware ADS-B
10:39PM 39.9507 -75.0149 277° West 190 219 2,000 -600 Level FlightAware ADS-B
10:39PM 39.9500 -75.0219 263° West 188 216 1,900 -300 Descending FlightAware ADS-B
10:39PM 39.9441 -75.0379 244° Southwest 192 221 1,900  Level FlightAware ADS-B
10:39PM 39.9423 -75.0413 235° Southwest 191 220 1,900  Level FlightAware ADS-B
10:39PM 39.9400 -75.0452 232° Southwest 192 221 1,900  Level FlightAware ADS-B
10:40PM 39.9316 -75.0588 231° Southwest 191 220 1,900  Level FlightAware ADS-B
10:40PM 39.9225 -75.0736 231° Southwest 181 208 1,900  Level FlightAware ADS-B
10:40PM 39.9175 -75.0817 231° Southwest 166 191 1,900  Level FlightAware ADS-B
10:40PM 39.9106 -75.0931 232° Southwest 154 177 1,900 -300 Level FlightAware ADS-B
10:40PM 39.9073 -75.0985 231° Southwest 152 175 1,800 -420 Descending FlightAware ADS-B
10:41PM 39.9042 -75.1038 233° Southwest 145 167 1,800 -480 Level FlightAware ADS-B
10:41PM 39.9022 -75.1075 235° Southwest 142 163 1,700 -1,140 Descending FlightAware ADS-B
10:41PM 39.9001 -75.1120 239° Southwest 138 159 1,600 -600 Descending FlightAware ADS-B
10:41PM 39.8991 -75.1145 242° Southwest 136 157 1,600 -720 Level FlightAware ADS-B
10:41PM 39.8955 -75.1242 244° Southwest 124 143 1,400 -720 Descending FlightAware ADS-B
10:41PM 39.8946 -75.1273 249° West 121 139 1,400  Level FlightAware ADS-B